createdAt,value
2016-07-24T00:00:52.193Z,0
2016-07-24T00:01:52.211Z,0
2016-07-24T00:02:52.949Z,0
2016-07-24T00:03:52.268Z,0
2016-07-24T00:04:53.026Z,0
2016-07-24T00:05:52.344Z,0
2016-07-24T00:06:53.065Z,0
2016-07-24T00:07:52.382Z,0
2016-07-24T00:08:53.123Z,0
2016-07-24T00:09:53.146Z,0
2016-07-24T00:10:54.593Z,0
2016-07-24T00:11:52.499Z,0
2016-07-24T00:12:53.244Z,0
2016-07-24T00:13:53.266Z,0
2016-07-24T00:14:52.581Z,0
2016-07-24T00:15:52.628Z,0
2016-07-24T00:16:52.642Z,0
2016-07-24T00:17:52.661Z,0
2016-07-24T00:18:52.688Z,0
2016-07-24T00:19:52.720Z,0
2016-07-24T00:20:52.745Z,0
2016-07-24T00:21:52.775Z,0
2016-07-24T00:22:52.824Z,0
2016-07-24T00:23:52.844Z,0
2016-07-24T00:24:52.862Z,0
2016-07-24T00:25:52.892Z,0
2016-07-24T00:26:52.924Z,0
2016-07-24T00:27:52.949Z,0
2016-07-24T00:28:52.972Z,0
2016-07-24T00:29:53.003Z,0
2016-07-24T00:30:53.743Z,0
2016-07-24T00:31:53.062Z,0
2016-07-24T00:32:53.801Z,0
2016-07-24T00:33:53.118Z,0
2016-07-24T00:34:53.853Z,0
2016-07-24T00:35:53.175Z,0
2016-07-24T00:36:53.202Z,0
2016-07-24T00:37:53.248Z,0
2016-07-24T00:38:53.260Z,0
2016-07-24T00:39:53.281Z,0
2016-07-24T00:40:53.315Z,0
2016-07-24T00:41:53.343Z,0
2016-07-24T00:42:53.371Z,0
2016-07-24T00:43:53.397Z,0
2016-07-24T00:44:53.425Z,0
2016-07-24T00:45:53.466Z,0
2016-07-24T00:46:53.493Z,0
2016-07-24T00:47:53.518Z,0
2016-07-24T00:48:53.543Z,0
2016-07-24T00:49:53.574Z,0
2016-07-24T00:50:53.609Z,0
2016-07-24T00:51:53.629Z,0
2016-07-24T00:52:53.675Z,0
2016-07-24T00:53:53.688Z,0
2016-07-24T00:54:53.715Z,0
2016-07-24T00:55:54.448Z,0
2016-07-24T00:56:54.480Z,0
2016-07-24T00:57:53.795Z,0
2016-07-24T00:58:53.833Z,0
2016-07-24T00:59:53.853Z,0
2016-07-24T01:00:53.979Z,0
2016-07-24T01:01:53.916Z,0
2016-07-24T01:02:55.369Z,0
2016-07-24T01:03:53.974Z,0
2016-07-24T01:04:53.995Z,0
2016-07-24T01:05:54.031Z,0
2016-07-24T01:06:54.049Z,0
2016-07-24T01:07:54.083Z,0
2016-07-24T01:08:54.108Z,0
2016-07-24T01:09:54.849Z,0
2016-07-24T01:10:54.174Z,0
2016-07-24T01:11:54.915Z,0
2016-07-24T01:12:54.242Z,0
2016-07-24T01:13:54.260Z,0
2016-07-24T01:14:54.286Z,0
2016-07-24T01:15:54.315Z,0
2016-07-24T01:16:54.341Z,0
2016-07-24T01:17:54.376Z,0
2016-07-24T01:18:55.107Z,0
2016-07-24T01:19:54.437Z,0
2016-07-24T01:20:54.458Z,0
2016-07-24T01:21:54.481Z,0
2016-07-24T01:22:55.213Z,0
2016-07-24T01:23:55.979Z,0
2016-07-24T01:24:54.566Z,0
2016-07-24T01:25:55.306Z,0
2016-07-24T01:26:56.042Z,0
2016-07-24T01:27:54.656Z,0
2016-07-24T01:28:54.677Z,0
2016-07-24T01:29:55.413Z,0
2016-07-24T01:30:54.735Z,0
2016-07-24T01:31:54.762Z,0
2016-07-24T01:32:55.500Z,0
2016-07-24T01:33:55.528Z,0
2016-07-24T01:34:54.862Z,0
2016-07-24T01:35:55.585Z,0
2016-07-24T01:36:54.910Z,0
2016-07-24T01:37:54.930Z,0
2016-07-24T01:38:55.672Z,0
2016-07-24T01:39:54.986Z,0
2016-07-24T01:40:55.019Z,0
2016-07-24T01:41:55.072Z,0
2016-07-24T01:42:55.090Z,0
2016-07-24T01:43:55.113Z,0
2016-07-24T01:44:55.135Z,0
2016-07-24T01:45:55.165Z,0
2016-07-24T01:46:55.188Z,0
2016-07-24T01:47:55.926Z,0
2016-07-24T01:48:55.246Z,0
2016-07-24T01:49:55.287Z,0
2016-07-24T01:50:55.321Z,0
2016-07-24T01:51:55.371Z,0
2016-07-24T01:52:55.394Z,0
2016-07-24T01:53:55.401Z,0
2016-07-24T01:54:55.414Z,0
2016-07-24T01:55:55.466Z,0
2016-07-24T01:56:55.474Z,0
2016-07-24T01:57:56.284Z,0
2016-07-24T01:58:55.530Z,0
2016-07-24T01:59:56.286Z,0
2016-07-24T02:00:55.608Z,0
2016-07-24T02:01:55.613Z,0
2016-07-24T02:02:55.647Z,0
2016-07-24T02:03:55.675Z,0
2016-07-24T02:04:55.701Z,0
2016-07-24T02:05:55.735Z,0
2016-07-24T02:06:56.476Z,0
2016-07-24T02:07:55.801Z,0
2016-07-24T02:08:55.823Z,0
2016-07-24T02:09:55.844Z,0
2016-07-24T02:10:55.874Z,0
2016-07-24T02:11:55.901Z,0
2016-07-24T02:12:55.930Z,0
2016-07-24T02:13:55.955Z,0
2016-07-24T02:14:56.011Z,0
2016-07-24T02:15:56.019Z,0
2016-07-24T02:16:56.044Z,0
2016-07-24T02:17:56.781Z,0
2016-07-24T02:18:56.825Z,0
2016-07-24T02:19:56.840Z,0
2016-07-24T02:20:56.870Z,0
2016-07-24T02:21:56.187Z,0
2016-07-24T02:22:56.957Z,0
2016-07-24T02:23:56.253Z,0
2016-07-24T02:24:56.275Z,0
2016-07-24T02:25:56.300Z,0
2016-07-24T02:26:56.331Z,0
2016-07-24T02:27:56.392Z,0
2016-07-24T02:28:56.390Z,0
2016-07-24T02:29:57.151Z,0
2016-07-24T02:30:56.457Z,0
2016-07-24T02:31:56.535Z,0
2016-07-24T02:32:57.207Z,0
2016-07-24T02:33:56.533Z,0
2016-07-24T02:34:56.555Z,0
2016-07-24T02:35:57.299Z,0
2016-07-24T02:36:56.617Z,0
2016-07-24T02:37:57.461Z,0
2016-07-24T02:38:56.686Z,0
2016-07-24T02:39:56.717Z,0
2016-07-24T02:40:56.736Z,0
2016-07-24T02:41:57.467Z,0
2016-07-24T02:42:56.785Z,0
2016-07-24T02:43:56.816Z,0
2016-07-24T02:44:57.595Z,0
2016-07-24T02:45:57.601Z,0
2016-07-24T02:46:56.909Z,0
2016-07-24T02:47:56.930Z,0
2016-07-24T02:48:58.388Z,0
2016-07-24T02:49:57.003Z,0
2016-07-24T02:50:57.014Z,0
2016-07-24T02:51:57.058Z,0
2016-07-24T02:52:57.074Z,0
2016-07-24T02:53:57.156Z,0
2016-07-24T02:54:57.133Z,0
2016-07-24T02:55:57.169Z,0
2016-07-24T02:56:57.898Z,0
2016-07-24T02:57:57.220Z,0
2016-07-24T02:58:57.957Z,0
2016-07-24T02:59:57.277Z,0
2016-07-24T03:00:57.302Z,0
2016-07-24T03:01:58.040Z,0
2016-07-24T03:02:57.362Z,0
2016-07-24T03:03:57.412Z,0
2016-07-24T03:04:57.420Z,0
2016-07-24T03:05:57.446Z,0
2016-07-24T03:06:57.472Z,0
2016-07-24T03:07:57.499Z,0
2016-07-24T03:08:57.532Z,0
2016-07-24T03:09:57.562Z,0
2016-07-24T03:10:58.298Z,0
2016-07-24T03:11:57.625Z,0
2016-07-24T03:12:57.656Z,0
2016-07-24T03:13:57.675Z,0
2016-07-24T03:14:57.702Z,0
2016-07-24T03:15:57.739Z,0
2016-07-24T03:16:58.471Z,0
2016-07-24T03:17:57.793Z,0
2016-07-24T03:18:57.844Z,0
2016-07-24T03:19:57.848Z,0
2016-07-24T03:20:57.874Z,0
2016-07-24T03:21:58.615Z,0
2016-07-24T03:22:57.934Z,0
2016-07-24T03:23:58.671Z,0
2016-07-24T03:24:58.693Z,0
2016-07-24T03:25:58.729Z,0
2016-07-24T03:26:58.775Z,0
2016-07-24T03:27:58.081Z,0
2016-07-24T03:28:58.134Z,0
2016-07-24T03:29:59.547Z,0
2016-07-24T03:30:58.873Z,0
2016-07-24T03:31:58.186Z,0
2016-07-24T03:32:58.212Z,0
2016-07-24T03:33:58.256Z,0
2016-07-24T03:35:00.403Z,0
2016-07-24T03:35:58.310Z,0
2016-07-24T03:36:58.347Z,0
2016-07-24T03:37:58.369Z,0
2016-07-24T03:38:58.390Z,0
2016-07-24T03:39:58.416Z,0
2016-07-24T03:40:59.155Z,0
2016-07-24T03:41:58.471Z,4
2016-07-24T03:42:58.510Z,0
2016-07-24T03:43:58.559Z,0
2016-07-24T03:44:58.565Z,0
2016-07-24T03:45:59.293Z,0
2016-07-24T03:46:58.612Z,0
2016-07-24T03:47:58.654Z,4
2016-07-24T03:48:58.668Z,0
2016-07-24T03:49:58.701Z,0
2016-07-24T03:50:59.451Z,0
2016-07-24T03:51:58.770Z,4
2016-07-24T03:52:58.790Z,0
2016-07-24T03:53:58.815Z,0
2016-07-24T03:54:58.845Z,4
2016-07-24T03:55:58.870Z,0
2016-07-24T03:56:58.892Z,4
2016-07-24T03:57:58.935Z,0
2016-07-24T03:58:58.983Z,0
2016-07-24T03:59:59.718Z,4
2016-07-24T04:00:59.725Z,4
2016-07-24T04:01:59.042Z,4
2016-07-24T04:02:59.784Z,4
2016-07-24T04:04:00.528Z,0
2016-07-24T04:04:59.839Z,0
2016-07-24T04:05:59.156Z,0
2016-07-24T04:06:59.908Z,0
2016-07-24T04:07:59.936Z,4
2016-07-24T04:08:59.243Z,4
2016-07-24T04:09:59.274Z,4
2016-07-24T04:10:59.331Z,4
2016-07-24T04:11:59.328Z,4
2016-07-24T04:12:59.365Z,0
2016-07-24T04:13:59.382Z,0
2016-07-24T04:14:59.424Z,4
2016-07-24T04:15:59.445Z,4
2016-07-24T04:16:59.484Z,4
2016-07-24T04:18:00.211Z,4
2016-07-24T04:18:59.550Z,0
2016-07-24T04:20:00.267Z,4
2016-07-24T04:21:00.304Z,4
2016-07-24T04:21:59.612Z,4
2016-07-24T04:22:59.643Z,4
2016-07-24T04:23:59.671Z,4
2016-07-24T04:24:59.695Z,8
2016-07-24T04:25:59.751Z,4
2016-07-24T04:26:59.770Z,4
2016-07-24T04:27:59.789Z,4
2016-07-24T04:28:59.823Z,4
2016-07-24T04:29:59.847Z,4
2016-07-24T04:30:59.884Z,4
2016-07-24T04:32:00.606Z,8
2016-07-24T04:33:00.632Z,8
2016-07-24T04:33:59.962Z,8
2016-07-24T04:34:59.991Z,8
2016-07-24T04:36:00.013Z,8
2016-07-24T04:37:00.052Z,8
2016-07-24T04:38:01.504Z,4
2016-07-24T04:39:00.807Z,4
2016-07-24T04:40:00.850Z,8
2016-07-24T04:41:00.166Z,4
2016-07-24T04:42:00.893Z,8
2016-07-24T04:43:00.213Z,8
2016-07-24T04:44:00.249Z,8
2016-07-24T04:45:00.269Z,8
2016-07-24T04:46:00.299Z,8
2016-07-24T04:47:00.330Z,8
2016-07-24T04:48:00.375Z,8
2016-07-24T04:49:01.114Z,8
2016-07-24T04:50:00.409Z,12
2016-07-24T04:51:00.455Z,8
2016-07-24T04:52:01.184Z,12
2016-07-24T04:53:00.496Z,12
2016-07-24T04:54:00.522Z,8
2016-07-24T04:55:01.266Z,12
2016-07-24T04:56:00.590Z,12
2016-07-24T04:57:00.611Z,8
2016-07-24T04:58:00.639Z,8
2016-07-24T04:59:00.664Z,12
2016-07-24T05:00:00.693Z,12
2016-07-24T05:01:00.724Z,8
2016-07-24T05:02:01.462Z,12
2016-07-24T05:03:00.785Z,12
2016-07-24T05:04:00.810Z,16
2016-07-24T05:05:00.834Z,12
2016-07-24T05:06:00.864Z,12
2016-07-24T05:07:00.909Z,16
2016-07-24T05:08:01.630Z,16
2016-07-24T05:09:00.949Z,12
2016-07-24T05:10:01.686Z,12
2016-07-24T05:11:01.015Z,12
2016-07-24T05:12:01.036Z,12
2016-07-24T05:13:01.069Z,12
2016-07-24T05:14:01.109Z,12
2016-07-24T05:15:01.833Z,12
2016-07-24T05:16:01.158Z,12
2016-07-24T05:17:01.179Z,12
2016-07-24T05:18:01.209Z,12
2016-07-24T05:19:01.232Z,12
2016-07-24T05:20:01.277Z,16
2016-07-24T05:21:01.310Z,16
2016-07-24T05:22:02.032Z,16
2016-07-24T05:23:01.346Z,16
2016-07-24T05:24:01.378Z,16
2016-07-24T05:25:02.117Z,16
2016-07-24T05:26:01.436Z,16
2016-07-24T05:27:02.177Z,16
2016-07-24T05:28:01.501Z,20
2016-07-24T05:29:01.531Z,20
2016-07-24T05:30:02.262Z,20
2016-07-24T05:31:02.300Z,24
2016-07-24T05:32:02.322Z,20
2016-07-24T05:33:01.635Z,20
2016-07-24T05:34:01.667Z,28
2016-07-24T05:35:01.695Z,24
2016-07-24T05:36:01.736Z,24
2016-07-24T05:37:01.762Z,28
2016-07-24T05:38:01.781Z,32
2016-07-24T05:39:01.810Z,28
2016-07-24T05:40:01.871Z,28
2016-07-24T05:41:01.872Z,28
2016-07-24T05:42:01.895Z,32
2016-07-24T05:43:01.925Z,32
2016-07-24T05:44:01.951Z,32
2016-07-24T05:45:01.981Z,32
2016-07-24T05:46:02.723Z,32
2016-07-24T05:47:02.067Z,32
2016-07-24T05:48:02.088Z,32
2016-07-24T05:49:03.576Z,32
2016-07-24T05:50:02.125Z,36
2016-07-24T05:51:02.865Z,36
2016-07-24T05:52:02.182Z,36
2016-07-24T05:53:02.205Z,36
2016-07-24T05:54:02.951Z,36
2016-07-24T05:55:02.978Z,40
2016-07-24T05:56:02.309Z,36
2016-07-24T05:57:02.327Z,36
2016-07-24T05:58:02.355Z,36
2016-07-24T05:59:02.387Z,36
2016-07-24T06:00:02.420Z,40
2016-07-24T06:01:03.155Z,36
2016-07-24T06:02:02.490Z,36
2016-07-24T06:03:02.502Z,36
2016-07-24T06:04:02.543Z,40
2016-07-24T06:05:02.560Z,40
2016-07-24T06:06:02.588Z,40
2016-07-24T06:07:02.623Z,40
2016-07-24T06:08:02.647Z,40
2016-07-24T06:09:02.704Z,44
2016-07-24T06:10:02.731Z,44
2016-07-24T06:11:02.736Z,44
2016-07-24T06:12:03.473Z,44
2016-07-24T06:13:02.795Z,44
2016-07-24T06:14:02.821Z,48
2016-07-24T06:15:03.562Z,48
2016-07-24T06:16:02.880Z,48
2016-07-24T06:17:02.918Z,48
2016-07-24T06:18:02.947Z,48
2016-07-24T06:19:02.971Z,48
2016-07-24T06:20:03.709Z,52
2016-07-24T06:21:03.738Z,56
2016-07-24T06:22:03.058Z,56
2016-07-24T06:23:03.083Z,60
2016-07-24T06:24:03.115Z,64
2016-07-24T06:25:03.867Z,68
2016-07-24T06:26:03.196Z,64
2016-07-24T06:27:03.928Z,64
2016-07-24T06:28:03.235Z,68
2016-07-24T06:29:03.263Z,68
2016-07-24T06:30:04.002Z,68
2016-07-24T06:31:03.321Z,68
2016-07-24T06:32:03.350Z,68
2016-07-24T06:33:03.380Z,68
2016-07-24T06:34:03.623Z,72
2016-07-24T06:35:03.440Z,72
2016-07-24T06:36:03.467Z,72
2016-07-24T06:37:03.517Z,72
2016-07-24T06:38:03.525Z,72
2016-07-24T06:39:03.558Z,72
2016-07-24T06:40:04.354Z,76
2016-07-24T06:41:03.623Z,76
2016-07-24T06:42:03.652Z,72
2016-07-24T06:43:04.386Z,72
2016-07-24T06:44:04.428Z,72
2016-07-24T06:45:03.735Z,76
2016-07-24T06:46:03.769Z,76
2016-07-24T06:47:03.802Z,80
2016-07-24T06:48:03.825Z,84
2016-07-24T06:49:04.564Z,84
2016-07-24T06:50:04.598Z,100
2016-07-24T06:51:03.910Z,100
2016-07-24T06:52:03.970Z,104
2016-07-24T06:53:03.980Z,104
2016-07-24T06:54:04.718Z,108
2016-07-24T06:55:04.028Z,108
2016-07-24T06:56:04.063Z,104
2016-07-24T06:57:04.095Z,100
2016-07-24T06:58:04.122Z,104
2016-07-24T06:59:04.165Z,108
2016-07-24T07:00:04.184Z,104
2016-07-24T07:01:04.213Z,108
2016-07-24T07:02:04.241Z,108
2016-07-24T07:03:04.282Z,108
2016-07-24T07:04:05.012Z,116
2016-07-24T07:05:04.330Z,120
2016-07-24T07:06:04.371Z,128
2016-07-24T07:07:04.396Z,128
2016-07-24T07:08:04.429Z,128
2016-07-24T07:09:04.444Z,136
2016-07-24T07:10:04.489Z,132
2016-07-24T07:11:04.514Z,132
2016-07-24T07:12:05.259Z,136
2016-07-24T07:13:06.028Z,132
2016-07-24T07:14:04.604Z,136
2016-07-24T07:15:04.635Z,140
2016-07-24T07:16:04.672Z,148
2016-07-24T07:17:04.711Z,148
2016-07-24T07:18:04.724Z,136
2016-07-24T07:19:04.751Z,128
2016-07-24T07:20:04.783Z,128
2016-07-24T07:21:05.531Z,128
2016-07-24T07:22:04.869Z,148
2016-07-24T07:23:04.877Z,156
2016-07-24T07:24:04.913Z,164
2016-07-24T07:25:04.948Z,172
2016-07-24T07:26:04.970Z,176
2016-07-24T07:27:04.997Z,188
2016-07-24T07:28:05.028Z,192
2016-07-24T07:29:05.059Z,188
2016-07-24T07:30:05.090Z,184
2016-07-24T07:31:05.829Z,188
2016-07-24T07:32:05.152Z,184
2016-07-24T07:33:05.198Z,184
2016-07-24T07:34:05.219Z,184
2016-07-24T07:35:05.958Z,184
2016-07-24T07:36:05.276Z,184
2016-07-24T07:37:05.305Z,184
2016-07-24T07:38:05.334Z,184
2016-07-24T07:39:05.365Z,192
2016-07-24T07:40:05.407Z,120
2016-07-24T07:41:05.433Z,132
2016-07-24T07:42:05.457Z,160
2016-07-24T07:43:05.515Z,136
2016-07-24T07:44:05.526Z,84
2016-07-24T07:45:05.548Z,68
2016-07-24T07:46:05.583Z,64
2016-07-24T07:47:05.612Z,80
2016-07-24T07:48:05.657Z,216
2016-07-24T07:49:05.692Z,92
2016-07-24T07:50:05.714Z,76
2016-07-24T07:51:05.740Z,68
2016-07-24T07:52:05.765Z,72
2016-07-24T07:53:05.800Z,88
2016-07-24T07:54:05.835Z,224
2016-07-24T07:55:05.866Z,244
2016-07-24T07:56:05.915Z,132
2016-07-24T07:57:05.924Z,140
2016-07-24T07:58:05.954Z,92
2016-07-24T07:59:05.988Z,76
2016-07-24T08:00:06.028Z,64
2016-07-24T08:01:06.051Z,64
2016-07-24T08:02:06.090Z,64
2016-07-24T08:03:06.112Z,68
2016-07-24T08:04:07.559Z,144
2016-07-24T08:05:06.884Z,244
2016-07-24T08:06:06.220Z,416
2016-07-24T08:07:06.240Z,548
2016-07-24T08:08:06.264Z,264
2016-07-24T08:09:06.300Z,1656
2016-07-24T08:10:06.331Z,344
2016-07-24T08:11:07.072Z,284
2016-07-24T08:12:06.394Z,176
2016-07-24T08:13:06.427Z,284
2016-07-24T08:14:06.456Z,308
2016-07-24T08:15:07.195Z,280
2016-07-24T08:16:06.518Z,276
2016-07-24T08:17:06.549Z,104
2016-07-24T08:18:06.581Z,72
2016-07-24T08:19:06.613Z,64
2016-07-24T08:20:07.359Z,56
2016-07-24T08:21:07.398Z,52
2016-07-24T08:22:06.715Z,48
2016-07-24T08:23:07.451Z,44
2016-07-24T08:24:06.766Z,44
2016-07-24T08:25:06.800Z,48
2016-07-24T08:26:07.547Z,52
2016-07-24T08:27:06.865Z,52
2016-07-24T08:28:07.629Z,52
2016-07-24T08:29:06.923Z,60
2016-07-24T08:30:06.956Z,56
2016-07-24T08:31:06.989Z,216
2016-07-24T08:32:07.046Z,276
2016-07-24T08:33:07.050Z,280
2016-07-24T08:34:07.084Z,284
2016-07-24T08:35:07.828Z,296
2016-07-24T08:36:07.857Z,188
2016-07-24T08:37:07.177Z,192
2016-07-24T08:38:07.207Z,100
2016-07-24T08:39:07.242Z,92
2016-07-24T08:40:07.276Z,92
2016-07-24T08:41:07.299Z,104
2016-07-24T08:42:07.333Z,252
2016-07-24T08:43:07.365Z,284
2016-07-24T08:44:07.392Z,280
2016-07-24T08:45:08.156Z,276
2016-07-24T08:46:07.458Z,272
2016-07-24T08:47:07.495Z,276
2016-07-24T08:48:07.538Z,268
2016-07-24T08:49:07.764Z,264
2016-07-24T08:50:07.579Z,196
2016-07-24T08:51:09.037Z,172
2016-07-24T08:52:08.359Z,84
2016-07-24T08:53:08.388Z,116
2016-07-24T08:54:08.454Z,104
2016-07-24T08:55:07.744Z,116
2016-07-24T08:56:09.196Z,284
2016-07-24T08:57:08.512Z,168
2016-07-24T08:58:07.836Z,300
2016-07-24T08:59:07.867Z,288
2016-07-24T09:00:07.902Z,164
2016-07-24T09:01:07.934Z,276
2016-07-24T09:02:08.688Z,240
2016-07-24T09:03:07.997Z,264
2016-07-24T09:04:08.047Z,260
2016-07-24T09:05:08.772Z,268
2016-07-24T09:06:08.092Z,276
2016-07-24T09:07:08.833Z,276
2016-07-24T09:08:08.250Z,280
2016-07-24T09:09:08.212Z,276
2016-07-24T09:10:08.217Z,272
2016-07-24T09:11:08.255Z,272
2016-07-24T09:12:08.280Z,276
2016-07-24T09:13:09.027Z,196
2016-07-24T09:14:08.344Z,80
2016-07-24T09:15:08.380Z,72
2016-07-24T09:16:08.411Z,68
2016-07-24T09:17:08.445Z,60
2016-07-24T09:18:08.479Z,56
2016-07-24T09:19:08.532Z,56
2016-07-24T09:20:09.253Z,64
2016-07-24T09:21:08.579Z,256
2016-07-24T09:22:08.604Z,260
2016-07-24T09:23:08.651Z,284
2016-07-24T09:24:08.668Z,300
2016-07-24T09:25:08.700Z,308
2016-07-24T09:26:09.497Z,92
2016-07-24T09:27:09.479Z,84
2016-07-24T09:28:09.508Z,100
2016-07-24T09:29:08.854Z,76
2016-07-24T09:30:09.065Z,60
2016-07-24T09:31:08.895Z,64
2016-07-24T09:32:08.932Z,80
2016-07-24T09:33:10.390Z,276
2016-07-24T09:34:09.706Z,268
2016-07-24T09:35:09.771Z,272
2016-07-24T09:36:09.059Z,268
2016-07-24T09:37:09.090Z,84
2016-07-24T09:38:09.129Z,140
2016-07-24T09:39:09.159Z,284
2016-07-24T09:40:09.185Z,280
2016-07-24T09:41:09.221Z,236
2016-07-24T09:42:09.251Z,284
2016-07-24T09:43:09.286Z,136
2016-07-24T09:44:09.383Z,212
2016-07-24T09:45:09.373Z,76
2016-07-24T09:46:10.093Z,72
2016-07-24T09:47:09.414Z,84
2016-07-24T09:48:10.159Z,92
2016-07-24T09:49:10.192Z,228
2016-07-24T09:50:09.513Z,108
2016-07-24T09:51:09.548Z,260
2016-07-24T09:52:09.591Z,252
2016-07-24T09:53:10.321Z,260
2016-07-24T09:54:11.071Z,84
2016-07-24T09:55:09.675Z,80
2016-07-24T09:56:09.711Z,76
2016-07-24T09:57:10.451Z,80
2016-07-24T09:58:10.486Z,80
2016-07-24T09:59:09.806Z,84
2016-07-24T10:00:09.855Z,100
2016-07-24T10:01:09.881Z,176
2016-07-24T10:02:10.619Z,208
2016-07-24T10:03:09.953Z,288
2016-07-24T10:04:11.391Z,288
2016-07-24T10:05:10.716Z,608
2016-07-24T10:06:10.035Z,836
2016-07-24T10:07:10.074Z,432
2016-07-24T10:08:10.101Z,304
2016-07-24T10:09:10.150Z,280
2016-07-24T10:10:10.170Z,256
2016-07-24T10:11:10.203Z,212
2016-07-24T10:12:10.239Z,252
2016-07-24T10:13:10.974Z,272
2016-07-24T10:14:10.299Z,208
2016-07-24T10:15:11.045Z,232
2016-07-24T10:16:10.362Z,208
2016-07-24T10:17:11.112Z,92
2016-07-24T10:18:11.177Z,88
2016-07-24T10:19:10.459Z,88
2016-07-24T10:20:10.502Z,88
2016-07-24T10:21:10.528Z,92
2016-07-24T10:22:10.564Z,92
2016-07-24T10:23:10.594Z,100
2016-07-24T10:24:10.633Z,164
2016-07-24T10:25:10.666Z,236
2016-07-24T10:26:12.117Z,276
2016-07-24T10:27:10.738Z,176
2016-07-24T10:28:10.761Z,112
2016-07-24T10:29:10.795Z,244
2016-07-24T10:30:10.824Z,252
2016-07-24T10:31:10.862Z,248
2016-07-24T10:32:10.891Z,240
2016-07-24T10:33:11.656Z,244
2016-07-24T10:34:10.968Z,244
2016-07-24T10:35:10.993Z,240
2016-07-24T10:36:11.730Z,240
2016-07-24T10:37:11.068Z,192
2016-07-24T10:38:11.095Z,108
2016-07-24T10:39:11.838Z,100
2016-07-24T10:40:11.877Z,96
2016-07-24T10:41:11.195Z,136
2016-07-24T10:42:11.243Z,124
2016-07-24T10:43:11.263Z,108
2016-07-24T10:44:11.292Z,100
2016-07-24T10:45:11.346Z,96
2016-07-24T10:46:12.785Z,224
2016-07-24T10:47:12.105Z,216
2016-07-24T10:48:12.138Z,216
2016-07-24T10:49:12.912Z,216
2016-07-24T10:50:11.498Z,212
2016-07-24T10:51:11.533Z,220
2016-07-24T10:52:11.761Z,212
2016-07-24T10:53:11.595Z,228
2016-07-24T10:54:11.627Z,232
2016-07-24T10:55:11.664Z,232
2016-07-24T10:56:11.693Z,232
2016-07-24T10:57:11.726Z,244
2016-07-24T10:58:11.763Z,236
2016-07-24T10:59:12.515Z,228
2016-07-24T11:00:11.843Z,232
2016-07-24T11:01:11.864Z,232
2016-07-24T11:02:11.900Z,188
2016-07-24T11:03:11.930Z,92
2016-07-24T11:04:11.966Z,212
2016-07-24T11:05:12.000Z,216
2016-07-24T11:06:12.030Z,112
2016-07-24T11:07:12.068Z,228
2016-07-24T11:08:12.120Z,228
2016-07-24T11:09:12.134Z,80
2016-07-24T11:10:12.170Z,76
2016-07-24T11:11:12.199Z,184
2016-07-24T11:12:12.238Z,84
2016-07-24T11:13:12.266Z,176
2016-07-24T11:14:13.010Z,60
2016-07-24T11:15:12.339Z,56
2016-07-24T11:16:12.367Z,60
2016-07-24T11:17:12.404Z,64
2016-07-24T11:18:12.438Z,64
2016-07-24T11:19:12.472Z,92
2016-07-24T11:20:12.505Z,76
2016-07-24T11:21:13.247Z,76
2016-07-24T11:22:12.573Z,128
2016-07-24T11:23:12.605Z,208
2016-07-24T11:24:12.641Z,204
2016-07-24T11:25:12.674Z,204
2016-07-24T11:26:12.716Z,204
2016-07-24T11:27:12.736Z,208
2016-07-24T11:28:13.487Z,208
2016-07-24T11:29:12.800Z,212
2016-07-24T11:30:12.839Z,212
2016-07-24T11:31:12.868Z,208
2016-07-24T11:32:13.630Z,216
2016-07-24T11:33:12.936Z,216
2016-07-24T11:34:13.682Z,216
2016-07-24T11:35:13.024Z,216
2016-07-24T11:36:13.749Z,208
2016-07-24T11:37:13.073Z,208
2016-07-24T11:38:13.115Z,212
2016-07-24T11:39:13.147Z,208
2016-07-24T11:40:13.886Z,212
2016-07-24T11:41:13.221Z,212
2016-07-24T11:42:13.251Z,204
2016-07-24T11:43:13.275Z,208
2016-07-24T11:44:13.322Z,204
2016-07-24T11:45:13.340Z,204
2016-07-24T11:46:13.591Z,208
2016-07-24T11:47:13.412Z,204
2016-07-24T11:48:13.441Z,204
2016-07-24T11:49:14.235Z,204
2016-07-24T11:50:13.516Z,196
2016-07-24T11:51:13.548Z,196
2016-07-24T11:52:13.610Z,196
2016-07-24T11:53:13.633Z,192
2016-07-24T11:54:13.650Z,196
2016-07-24T11:55:14.393Z,192
2016-07-24T11:56:13.719Z,192
2016-07-24T11:57:13.752Z,192
2016-07-24T11:58:13.783Z,196
2016-07-24T11:59:28.718Z,196
2016-07-24T12:00:13.854Z,196
2016-07-24T12:01:14.605Z,192
2016-07-24T12:02:14.634Z,192
2016-07-24T12:03:13.968Z,192
2016-07-24T12:04:13.988Z,192
2016-07-24T12:05:14.029Z,196
2016-07-24T12:06:14.767Z,192
2016-07-24T12:07:14.098Z,192
2016-07-24T12:08:14.836Z,192
2016-07-24T12:09:14.872Z,192
2016-07-24T12:10:14.197Z,192
2016-07-24T12:11:14.230Z,188
2016-07-24T12:12:14.263Z,188
2016-07-24T12:13:15.740Z,188
2016-07-24T12:14:14.340Z,188
2016-07-24T12:15:15.790Z,192
2016-07-24T12:16:15.135Z,184
2016-07-24T12:17:14.437Z,184
2016-07-24T12:18:15.185Z,180
2016-07-24T12:19:14.501Z,188
2016-07-24T12:20:15.291Z,188
2016-07-24T12:21:14.579Z,188
2016-07-24T12:22:14.619Z,188
2016-07-24T12:23:15.366Z,188
2016-07-24T12:24:15.415Z,184
2016-07-24T12:25:15.432Z,188
2016-07-24T12:26:14.747Z,176
2016-07-24T12:27:15.495Z,172
2016-07-24T12:28:15.531Z,172
2016-07-24T12:29:16.987Z,176
2016-07-24T12:30:14.892Z,160
2016-07-24T12:31:15.630Z,148
2016-07-24T12:32:14.957Z,132
2016-07-24T12:33:16.420Z,68
2016-07-24T12:34:15.039Z,52
2016-07-24T12:35:15.088Z,48
2016-07-24T12:36:15.817Z,48
2016-07-24T12:37:15.139Z,44
2016-07-24T12:38:15.170Z,48
2016-07-24T12:39:16.638Z,44
2016-07-24T12:40:15.955Z,48
2016-07-24T12:41:16.001Z,44
2016-07-24T12:42:15.321Z,48
2016-07-24T12:43:15.345Z,44
2016-07-24T12:44:16.088Z,48
2016-07-24T12:45:15.420Z,52
2016-07-24T12:46:16.154Z,56
2016-07-24T12:47:16.212Z,64
2016-07-24T12:48:16.229Z,104
2016-07-24T12:49:15.548Z,164
2016-07-24T12:50:16.320Z,160
2016-07-24T12:51:15.616Z,60
2016-07-24T12:52:17.076Z,56
2016-07-24T12:53:15.680Z,60
2016-07-24T12:54:15.718Z,88
2016-07-24T12:55:15.760Z,92
2016-07-24T12:56:15.789Z,112
2016-07-24T12:57:15.820Z,56
2016-07-24T12:58:16.591Z,52
2016-07-24T12:59:15.884Z,52
2016-07-24T13:00:15.931Z,48
2016-07-24T13:01:16.670Z,48
2016-07-24T13:02:15.996Z,52
2016-07-24T13:03:16.756Z,72
2016-07-24T13:04:16.061Z,128
2016-07-24T13:05:16.811Z,124
2016-07-24T13:06:16.886Z,88
2016-07-24T13:07:16.173Z,52
2016-07-24T13:08:16.909Z,48
2016-07-24T13:09:16.234Z,48
2016-07-24T13:10:17.697Z,48
2016-07-24T13:11:16.309Z,44
2016-07-24T13:12:17.047Z,48
2016-07-24T13:13:16.368Z,48
2016-07-24T13:14:16.407Z,48
2016-07-24T13:15:16.467Z,48
2016-07-24T13:16:17.901Z,48
2016-07-24T13:17:17.228Z,56
2016-07-24T13:18:17.256Z,144
2016-07-24T13:19:17.296Z,160
2016-07-24T13:20:16.618Z,156
2016-07-24T13:21:16.641Z,148
2016-07-24T13:22:16.677Z,148
2016-07-24T13:23:18.135Z,144
2016-07-24T13:24:17.459Z,140
2016-07-24T13:25:16.775Z,144
2016-07-24T13:26:17.523Z,52
2016-07-24T13:27:18.273Z,140
2016-07-24T13:28:17.600Z,96
2016-07-24T13:29:17.636Z,68
2016-07-24T13:30:17.687Z,140
2016-07-24T13:31:17.711Z,136
2016-07-24T13:32:17.766Z,136
2016-07-24T13:33:17.797Z,124
2016-07-24T13:34:17.827Z,116
2016-07-24T13:35:17.249Z,128
2016-07-24T13:36:17.872Z,88
2016-07-24T13:37:17.928Z,100
2016-07-24T13:38:17.954Z,104
2016-07-24T13:39:17.982Z,100
2016-07-24T13:40:18.719Z,100
2016-07-24T13:41:17.327Z,100
2016-07-24T13:42:18.093Z,92
2016-07-24T13:43:17.394Z,88
2016-07-24T13:44:18.170Z,100
2016-07-24T13:45:18.181Z,104
2016-07-24T13:46:17.503Z,108
2016-07-24T13:47:18.992Z,112
2016-07-24T13:48:18.277Z,116
2016-07-24T13:49:32.718Z,120
2016-07-24T13:50:18.352Z,120
2016-07-24T13:51:17.751Z,124
2016-07-24T13:52:17.703Z,120
2016-07-24T13:53:17.744Z,124
2016-07-24T13:54:18.481Z,96
2016-07-24T13:55:18.527Z,76
2016-07-24T13:56:17.841Z,96
2016-07-24T13:57:17.878Z,128
2016-07-24T13:58:17.907Z,124
2016-07-24T13:59:17.947Z,112
2016-07-24T14:00:17.975Z,56
2016-07-24T14:01:18.007Z,44
2016-07-24T14:02:18.037Z,48
2016-07-24T14:03:18.075Z,52
2016-07-24T14:04:18.118Z,48
2016-07-24T14:05:18.856Z,40
2016-07-24T14:06:18.894Z,40
2016-07-24T14:07:18.930Z,40
2016-07-24T14:08:18.245Z,40
2016-07-24T14:09:18.276Z,60
2016-07-24T14:10:18.328Z,104
2016-07-24T14:11:19.056Z,100
2016-07-24T14:12:19.095Z,104
2016-07-24T14:13:19.128Z,112
2016-07-24T14:14:18.456Z,108
2016-07-24T14:15:19.199Z,96